createdAt,value
2023-04-09T00:01:58.551Z,100851.75
2023-04-09T00:04:27.161Z,100850.31
2023-04-09T00:06:55.289Z,100855.69
2023-04-09T00:09:23.485Z,100837.41
2023-04-09T00:11:51.570Z,100846.22
2023-04-09T00:14:19.743Z,100854.44
2023-04-09T00:16:47.778Z,100845.63
2023-04-09T00:19:17.725Z,100842.31
2023-04-09T00:21:45.789Z,100850.38
2023-04-09T00:24:14.046Z,100855.16
2023-04-09T00:26:42.261Z,100848.31
2023-04-09T00:29:10.621Z,100847.47
2023-04-09T00:31:38.918Z,100843.16
2023-04-09T00:34:07.117Z,100846.81
2023-04-09T00:36:36.617Z,100842.53
2023-04-09T00:39:04.878Z,100844.50
2023-04-09T00:41:33.001Z,100843.66
2023-04-09T00:44:01.111Z,100850.09
2023-04-09T00:46:29.202Z,100844.00
2023-04-09T00:48:57.283Z,100844.09
2023-04-09T00:51:25.548Z,100843.38
2023-04-09T00:53:56.301Z,100841.88
2023-04-09T00:56:27.328Z,100841.03
2023-04-09T00:58:55.744Z,100841.16
2023-04-09T01:01:24.327Z,100843.00
2023-04-09T01:03:52.555Z,100848.50
2023-04-09T01:06:28.311Z,100843.34
2023-04-09T01:09:04.172Z,100839.03
2023-04-09T01:11:39.091Z,100841.84
2023-04-09T01:14:15.936Z,100840.16
2023-04-09T01:16:46.194Z,100842.09
2023-04-09T01:19:31.263Z,100840.38
2023-04-09T01:22:01.777Z,100841.38
2023-04-09T01:24:46.135Z,100839.88
2023-04-09T01:27:16.270Z,100838.16
2023-04-09T01:29:48.972Z,100839.00
2023-04-09T01:32:20.342Z,100837.41
2023-04-09T01:34:49.620Z,100841.09
2023-04-09T01:37:19.332Z,100842.06
2023-04-09T01:39:48.372Z,100847.59
2023-04-09T01:42:17.643Z,100841.44
2023-04-09T01:44:47.905Z,100848.66
2023-04-09T01:47:16.709Z,100838.81
2023-04-09T01:49:46.809Z,100839.19
2023-04-09T01:52:15.663Z,100833.94
2023-04-09T01:54:44.229Z,100846.41
2023-04-09T01:57:12.358Z,100847.41
2023-04-09T01:59:40.783Z,100842.22
2023-04-09T02:02:18.812Z,100841.47
2023-04-09T02:04:50.232Z,100851.28
2023-04-09T02:07:28.550Z,100837.31
2023-04-09T02:09:58.421Z,100851.50
2023-04-09T02:12:26.874Z,100835.81
2023-04-09T02:14:55.740Z,100848.28
2023-04-09T02:17:26.580Z,100848.28
2023-04-09T02:19:54.784Z,100842.06
2023-04-09T02:22:23.016Z,100836.06
2023-04-09T02:24:51.167Z,100837.78
2023-04-09T02:27:19.337Z,100840.59
2023-04-09T02:29:47.506Z,100839.72
2023-04-09T02:32:16.063Z,100837.28
2023-04-09T02:34:45.907Z,100835.44
2023-04-09T02:37:13.977Z,100835.53
2023-04-09T02:39:42.061Z,100834.78
2023-04-09T02:42:10.166Z,100833.06
2023-04-09T02:44:38.298Z,100835.75
2023-04-09T02:47:06.406Z,100834.91
2023-04-09T02:49:34.852Z,100843.09
2023-04-09T02:52:05.029Z,100831.59
2023-04-09T02:54:33.232Z,100835.28
2023-04-09T02:57:01.296Z,100832.66
2023-04-09T02:59:29.381Z,100836.34
2023-04-09T03:01:57.766Z,100835.47
2023-04-09T03:04:25.860Z,100836.69
2023-04-09T03:06:53.937Z,100840.13
2023-04-09T03:09:24.027Z,100835.19
2023-04-09T03:11:52.286Z,100840.47
2023-04-09T03:14:20.401Z,100840.47
2023-04-09T03:16:48.482Z,100845.00
2023-04-09T03:19:16.634Z,100836.16
2023-04-09T03:21:44.669Z,100845.22
2023-04-09T03:24:12.948Z,100832.72
2023-04-09T03:26:42.403Z,100839.09
2023-04-09T03:29:10.495Z,100826.72
2023-04-09T03:31:38.650Z,100838.34
2023-04-09T03:34:06.867Z,100842.03
2023-04-09T03:36:34.896Z,100839.44
2023-04-09T03:39:03.126Z,100837.69
2023-04-09T03:41:31.235Z,100848.47
2023-04-09T03:44:00.782Z,100844.91
2023-04-09T03:46:28.872Z,100844.28
2023-04-09T03:48:57.053Z,100840.97
2023-04-09T03:51:25.147Z,100850.53
2023-04-09T03:53:53.741Z,100852.47
2023-04-09T03:56:22.406Z,100847.22
2023-04-09T03:58:50.891Z,100844.53
2023-04-09T04:01:21.259Z,100835.91
2023-04-09T04:03:49.962Z,100850.97
2023-04-09T04:06:18.115Z,100850.22
2023-04-09T04:08:46.174Z,100851.31
2023-04-09T04:11:14.311Z,100855.63
2023-04-09T04:13:42.454Z,100849.72
2023-04-09T04:16:11.645Z,100850.47
2023-04-09T04:18:41.235Z,100847.91
2023-04-09T04:21:14.204Z,100846.19
2023-04-09T04:23:42.594Z,100841.84
2023-04-09T04:26:11.172Z,100856.09
2023-04-09T04:28:39.640Z,100853.59
2023-04-09T04:31:09.811Z,100863.38
2023-04-09T04:33:38.733Z,100856.28
2023-04-09T04:36:10.113Z,100865.31
2023-04-09T04:38:38.638Z,100867.03
2023-04-09T04:41:07.199Z,100871.25
2023-04-09T04:43:35.430Z,100868.22
2023-04-09T04:46:03.527Z,100866.56
2023-04-09T04:48:32.188Z,100879.22
2023-04-09T04:51:02.247Z,100874.13
2023-04-09T04:53:31.735Z,100876.16
2023-04-09T04:55:59.837Z,100873.00
2023-04-09T04:58:27.945Z,100881.13
2023-04-09T05:00:56.242Z,100874.22
2023-04-09T05:03:27.009Z,100876.25
2023-04-09T05:05:55.691Z,100871.97
2023-04-09T05:08:23.841Z,100866.88
2023-04-09T05:10:56.070Z,100875.19
2023-04-09T05:13:24.835Z,100870.22
2023-04-09T05:15:52.927Z,100874.03
2023-04-09T05:18:21.065Z,100875.28
2023-04-09T05:20:49.506Z,100876.75
2023-04-09T05:23:17.522Z,100870.16
2023-04-09T05:25:45.501Z,100876.28
2023-04-09T05:28:16.801Z,100879.69
2023-04-09T05:30:47.723Z,100884.13
2023-04-09T05:33:16.213Z,100889.50
2023-04-09T05:35:44.293Z,100885.09
2023-04-09T05:38:13.567Z,100886.81
2023-04-09T05:40:42.419Z,100886.81
2023-04-09T05:43:10.822Z,100890.72
2023-04-09T05:45:40.627Z,100895.88
2023-04-09T05:48:08.936Z,100892.56
2023-04-09T05:50:51.133Z,100891.59
2023-04-09T05:53:22.435Z,100902.50
2023-04-09T05:55:50.736Z,100897.31
2023-04-09T05:58:19.874Z,100890.34
2023-04-09T06:00:51.605Z,100902.00
2023-04-09T06:03:20.078Z,100895.13
2023-04-09T06:05:48.488Z,100897.06
2023-04-09T06:08:16.758Z,100909.81
2023-04-09T06:10:44.979Z,100907.22
2023-04-09T06:13:13.280Z,100902.22
2023-04-09T06:15:41.613Z,100907.47
2023-04-09T06:18:11.330Z,100907.59
2023-04-09T06:20:39.421Z,100905.97
2023-04-09T06:23:07.490Z,100906.97
2023-04-09T06:25:36.670Z,100907.94
2023-04-09T06:28:05.039Z,100909.03
2023-04-09T06:30:33.255Z,100911.00
2023-04-09T06:33:01.408Z,100909.25
2023-04-09T06:35:31.069Z,100907.53
2023-04-09T06:37:59.177Z,100919.28
2023-04-09T06:40:27.584Z,100913.28
2023-04-09T06:42:58.151Z,100912.44
2023-04-09T06:45:26.574Z,100917.09
2023-04-09T06:47:54.612Z,100910.84
2023-04-09T06:50:22.744Z,100914.59
2023-04-09T06:52:53.737Z,100921.84
2023-04-09T06:55:22.180Z,100918.41
2023-04-09T06:57:50.451Z,100921.22
2023-04-09T07:00:19.093Z,100924.88
2023-04-09T07:02:47.414Z,100931.25
2023-04-09T07:05:15.778Z,100934.16
2023-04-09T07:07:43.983Z,100935.13
2023-04-09T07:10:14.000Z,100941.50
2023-04-09T07:12:42.833Z,100938.94
2023-04-09T07:15:11.258Z,100933.66
2023-04-09T07:17:39.448Z,100934.66
2023-04-09T07:20:08.897Z,100941.00
2023-04-09T07:22:37.713Z,100948.22
2023-04-09T07:25:07.393Z,100953.63
2023-04-09T07:27:36.861Z,100946.56
2023-04-09T07:30:05.886Z,100942.94
2023-04-09T07:32:34.145Z,100951.94
2023-04-09T07:35:02.438Z,100948.41
2023-04-09T07:37:30.638Z,100943.88
2023-04-09T07:39:59.064Z,100949.25
2023-04-09T07:42:27.465Z,100946.69
2023-04-09T07:44:57.676Z,100952.94
2023-04-09T07:47:25.818Z,100952.06
2023-04-09T07:49:53.980Z,100954.88
2023-04-09T07:52:22.264Z,100962.00
2023-04-09T07:54:50.549Z,100958.31
2023-04-09T07:57:18.691Z,100958.31
2023-04-09T07:59:47.283Z,100959.19
2023-04-09T08:02:17.780Z,100960.94
2023-04-09T08:04:46.083Z,100956.41
2023-04-09T08:07:14.207Z,100945.09
2023-04-09T08:09:42.284Z,100957.47
2023-04-09T08:12:11.111Z,100962.00
2023-04-09T08:14:43.941Z,100963.72
2023-04-09T08:17:12.140Z,100967.38
2023-04-09T08:19:42.136Z,100962.97
2023-04-09T08:22:10.455Z,100964.81
2023-04-09T08:24:40.181Z,100965.66
2023-04-09T08:27:08.311Z,100978.16
2023-04-09T08:29:36.545Z,100969.94
2023-04-09T08:32:05.331Z,100974.31
2023-04-09T08:34:35.586Z,100976.88
2023-04-09T08:37:05.199Z,100972.34
2023-04-09T08:39:34.271Z,100973.22
2023-04-09T08:42:02.873Z,100964.28
2023-04-09T08:44:31.402Z,100980.94
2023-04-09T08:47:01.278Z,100984.16
2023-04-09T08:49:29.646Z,100984.34
2023-04-09T08:51:57.905Z,100984.50
2023-04-09T08:54:27.556Z,100982.72
2023-04-09T08:56:56.407Z,100987.16
2023-04-09T08:59:30.992Z,100993.94
2023-04-09T09:02:09.664Z,100986.00
2023-04-09T09:04:48.542Z,100989.56
2023-04-09T09:07:17.423Z,100994.00
2023-04-09T09:09:54.733Z,100999.56
2023-04-09T09:12:38.191Z,100984.28
2023-04-09T09:15:25.513Z,100993.38
2023-04-09T09:17:56.926Z,100988.94
2023-04-09T09:20:26.022Z,100995.31
2023-04-09T09:22:56.011Z,100999.13
2023-04-09T09:25:26.413Z,100995.78
2023-04-09T09:27:55.441Z,100993.09
2023-04-09T09:30:24.978Z,100991.09
2023-04-09T09:32:54.918Z,100987.56
2023-04-09T09:35:23.625Z,100993.06
2023-04-09T09:38:04.229Z,100989.59
2023-04-09T09:40:33.839Z,100983.41
2023-04-09T09:43:02.154Z,100983.78
2023-04-09T09:45:30.676Z,100985.22
2023-04-09T09:48:01.694Z,100982.25
2023-04-09T09:50:32.502Z,100983.72
2023-04-09T09:53:05.149Z,100987.00
2023-04-09T09:55:38.263Z,100978.38
2023-04-09T09:58:12.039Z,100983.38
2023-04-09T10:00:41.502Z,100980.56
2023-04-09T10:03:15.983Z,100980.03
2023-04-09T10:05:45.967Z,100979.53
2023-04-09T10:08:14.535Z,100979.84
2023-04-09T10:10:44.460Z,100978.47
2023-04-09T10:13:21.748Z,100978.94
2023-04-09T10:15:50.654Z,100980.84
2023-04-09T10:18:19.457Z,100983.03
2023-04-09T10:20:52.381Z,100981.75
2023-04-09T10:23:30.009Z,100980.25
2023-04-09T10:25:59.691Z,100984.13
2023-04-09T10:28:27.776Z,100974.50
2023-04-09T10:30:57.477Z,100977.63
2023-04-09T10:33:28.006Z,100970.53
2023-04-09T10:36:00.822Z,100970.25
2023-04-09T10:38:35.543Z,100980.00
2023-04-09T10:41:17.728Z,100973.72
2023-04-09T10:43:48.683Z,100977.13
2023-04-09T10:46:32.625Z,100978.72
2023-04-09T10:49:12.128Z,100972.56
2023-04-09T10:51:45.204Z,100974.44
2023-04-09T10:54:45.786Z,100978.00
2023-04-09T10:57:20.764Z,100974.56
2023-04-09T10:59:51.125Z,100976.53
2023-04-09T11:02:50.054Z,100965.97
2023-04-09T11:05:27.774Z,100970.69
2023-04-09T11:08:04.053Z,100959.16
2023-04-09T11:10:33.112Z,100964.09
2023-04-09T11:13:03.085Z,100958.97
2023-04-09T11:15:32.361Z,100963.66
2023-04-09T11:18:00.624Z,100963.91
2023-04-09T11:20:30.729Z,100968.59
2023-04-09T11:23:00.606Z,100968.88
2023-04-09T11:25:30.977Z,100966.47
2023-04-09T11:27:59.616Z,100961.56
2023-04-09T11:39:40.873Z,100957.97
2023-04-09T11:42:08.976Z,100958.97
2023-04-09T11:44:36.984Z,100957.50
2023-04-09T11:47:05.262Z,100960.47
2023-04-09T11:49:33.908Z,100957.06
2023-04-09T11:52:04.063Z,100964.44
2023-04-09T11:54:33.234Z,100957.44
2023-04-09T11:57:05.046Z,100960.28
2023-04-09T11:59:33.308Z,100960.50
2023-04-09T12:02:01.916Z,100965.22
2023-04-09T12:04:30.167Z,100959.81
2023-04-09T12:06:58.878Z,100953.91
2023-04-09T12:09:27.565Z,100966.44
2023-04-09T12:11:56.129Z,100954.91
2023-04-09T12:14:25.705Z,100954.06
2023-04-09T12:16:53.934Z,100953.19
2023-04-09T12:19:28.031Z,100955.03
2023-04-09T12:21:58.434Z,100955.19
2023-04-09T12:24:28.121Z,100951.47
2023-04-09T12:26:57.243Z,100944.22
2023-04-09T12:29:26.952Z,100943.22
2023-04-09T12:31:55.041Z,100946.78
2023-04-09T12:34:23.131Z,100939.38
2023-04-09T12:36:51.257Z,100931.13
2023-04-09T12:39:21.016Z,100940.00
2023-04-09T12:41:50.469Z,100933.75
2023-04-09T12:44:18.577Z,100928.31
2023-04-09T12:46:48.457Z,100927.34
2023-04-09T12:49:17.139Z,100927.44
2023-04-09T12:51:45.835Z,100924.34
2023-04-09T12:54:14.040Z,100917.22
2023-04-09T12:56:42.141Z,100930.91
2023-04-09T12:59:10.891Z,100930.28
2023-04-09T13:01:42.028Z,100928.56
2023-04-09T13:04:13.180Z,100924.16
2023-04-09T13:06:41.619Z,100918.03
2023-04-09T13:09:12.487Z,100915.75
2023-04-09T13:11:41.245Z,100906.94
2023-04-09T13:14:13.532Z,100916.38
2023-04-09T13:16:41.920Z,100904.84
2023-04-09T13:19:12.355Z,100908.13
2023-04-09T13:21:40.464Z,100906.53
2023-04-09T13:24:08.722Z,100910.97
2023-04-09T13:26:36.947Z,100903.69
2023-04-09T13:29:05.306Z,100905.69
2023-04-09T13:31:33.446Z,100904.22
2023-04-09T13:34:02.858Z,100904.94
2023-04-09T13:36:32.572Z,100901.13
2023-04-09T13:39:04.354Z,100896.09
2023-04-09T13:41:33.421Z,100891.69
2023-04-09T13:44:02.229Z,100893.53
2023-04-09T13:46:30.425Z,100890.97
2023-04-09T13:48:58.550Z,100885.84
2023-04-09T13:51:29.630Z,100899.22
2023-04-09T13:53:59.086Z,100892.69
2023-04-09T13:56:28.603Z,100899.53
2023-04-09T13:58:56.689Z,100889.44
2023-04-09T14:01:27.438Z,100885.91
2023-04-09T14:03:56.163Z,100883.75
2023-04-09T14:06:24.686Z,100886.22
2023-04-09T14:08:53.136Z,100888.78
2023-04-09T14:11:22.874Z,100885.13
2023-04-09T14:13:51.255Z,100888.53
2023-04-09T14:16:20.437Z,100883.00
2023-04-09T14:18:48.526Z,100878.56
2023-04-09T14:21:18.127Z,100875.44
2023-04-09T14:23:46.848Z,100880.72
2023-04-09T14:26:16.126Z,100874.34
2023-04-09T14:28:47.200Z,100879.47
2023-04-09T14:31:15.513Z,100869.50
2023-04-09T14:33:43.643Z,100869.34
2023-04-09T14:36:11.790Z,100870.34
2023-04-09T14:38:40.365Z,100862.09
2023-04-09T14:41:08.518Z,100862.94
2023-04-09T14:43:36.639Z,100865.50
2023-04-09T14:46:11.651Z,100868.38
2023-04-09T14:48:40.553Z,100866.66
2023-04-09T14:51:10.833Z,100865.94
2023-04-09T14:53:39.281Z,100866.94
2023-04-09T14:56:08.197Z,100864.63
2023-04-09T14:58:37.340Z,100864.63
2023-04-09T15:01:07.270Z,100867.47
2023-04-09T15:03:35.765Z,100863.75
2023-04-09T15:06:04.044Z,100862.06
2023-04-09T15:08:32.121Z,100868.47
2023-04-09T15:11:00.309Z,100865.19
2023-04-09T15:13:28.422Z,100859.88
2023-04-09T15:15:56.729Z,100857.47
2023-04-09T15:18:26.274Z,100860.41
2023-04-09T15:20:54.765Z,100865.97
2023-04-09T15:23:22.887Z,100861.66
2023-04-09T15:25:51.661Z,100860.06
2023-04-09T15:28:19.883Z,100856.66
2023-04-09T15:30:48.130Z,100860.50
2023-04-09T15:33:16.424Z,100858.78
2023-04-09T15:35:46.010Z,100861.75
2023-04-09T15:38:14.503Z,100863.72
2023-04-09T15:40:42.641Z,100854.91
2023-04-09T15:43:10.627Z,100849.75
2023-04-09T15:45:38.758Z,100858.13
2023-04-09T15:48:07.293Z,100858.00
2023-04-09T15:50:39.690Z,100861.81
2023-04-09T15:53:09.257Z,100862.09
2023-04-09T15:55:37.292Z,100866.78
2023-04-09T15:58:05.402Z,100856.22
2023-04-09T16:00:33.645Z,100859.91
2023-04-09T16:03:01.772Z,100865.47
2023-04-09T16:05:29.934Z,100854.06
2023-04-09T16:07:59.766Z,100854.31
2023-04-09T16:10:29.534Z,100857.00
2023-04-09T16:12:57.608Z,100861.69
2023-04-09T16:15:25.701Z,100863.69
2023-04-09T16:17:53.729Z,100868.97
2023-04-09T16:20:22.322Z,100865.41
2023-04-09T16:22:50.628Z,100862.97
2023-04-09T16:25:18.841Z,100866.66
2023-04-09T16:27:48.415Z,100863.47
2023-04-09T16:30:16.610Z,100859.34
2023-04-09T16:32:44.870Z,100868.44
2023-04-09T16:35:13.268Z,100868.53
2023-04-09T16:37:41.373Z,100863.41
2023-04-09T16:40:10.529Z,100860.84
2023-04-09T16:42:39.297Z,100865.53
2023-04-09T16:45:09.784Z,100866.63
2023-04-09T16:47:37.936Z,100859.63
2023-04-09T16:50:10.513Z,100869.72
2023-04-09T16:52:39.575Z,100864.59
2023-04-09T16:55:09.094Z,100859.44
2023-04-09T16:57:38.131Z,100864.69
2023-04-09T17:00:09.448Z,100857.72
2023-04-09T17:02:39.450Z,100865.97
2023-04-09T17:05:09.019Z,100867.81
2023-04-09T17:07:37.165Z,100861.69
2023-04-09T17:10:06.486Z,100860.94
2023-04-09T17:12:35.031Z,100860.06
2023-04-09T17:15:03.113Z,100869.28
2023-04-09T17:17:33.358Z,100863.00
2023-04-09T17:20:01.988Z,100867.41
2023-04-09T17:22:30.278Z,100858.59
2023-04-09T17:24:58.322Z,100860.56
2023-04-09T17:27:27.560Z,100865.13
2023-04-09T17:29:55.810Z,100870.53
2023-04-09T17:32:24.131Z,100862.78
2023-04-09T17:34:53.652Z,100865.50
2023-04-09T17:37:21.842Z,100866.59
2023-04-09T17:39:50.158Z,100875.56
2023-04-09T17:42:19.577Z,100872.28
2023-04-09T17:44:47.676Z,100874.25
2023-04-09T17:47:15.952Z,100879.66
2023-04-09T17:49:44.454Z,100882.38
2023-04-09T17:52:14.790Z,100885.28
2023-04-09T17:54:45.525Z,100890.69
2023-04-09T17:57:13.818Z,100891.81
2023-04-09T17:59:41.991Z,100890.97
2023-04-09T18:02:10.879Z,100889.25
2023-04-09T18:04:39.762Z,100892.94
2023-04-09T18:07:07.920Z,100892.94
2023-04-09T18:09:39.142Z,100902.63
2023-04-09T18:12:07.494Z,100900.50
2023-04-09T18:14:35.602Z,100911.41
2023-04-09T18:17:03.801Z,100914.22
2023-04-09T18:19:32.165Z,100918.16
2023-04-09T18:22:00.477Z,100918.25
2023-04-09T18:24:29.275Z,100911.47
2023-04-09T18:27:02.229Z,100915.25
2023-04-09T18:29:30.588Z,100914.56
2023-04-09T18:31:59.025Z,100915.91
2023-04-09T18:34:27.497Z,100916.25
2023-04-09T18:36:56.152Z,100919.88
2023-04-09T18:39:24.450Z,100920.47
2023-04-09T18:41:52.644Z,100914.91
2023-04-09T18:44:22.219Z,100922.25
2023-04-09T18:46:50.491Z,100931.81
2023-04-09T18:49:18.538Z,100921.59
2023-04-09T18:51:47.248Z,100921.78
2023-04-09T18:54:15.591Z,100922.13
2023-04-09T18:56:45.924Z,100925.28
2023-04-09T18:59:14.641Z,100925.88
2023-04-09T19:01:44.634Z,100924.00
2023-04-09T19:04:13.214Z,100931.88
2023-04-09T19:06:41.465Z,100928.31
2023-04-09T19:09:10.010Z,100926.47
2023-04-09T19:11:41.192Z,100933.00
2023-04-09T19:14:09.674Z,100932.13
2023-04-09T19:16:38.496Z,100933.28
2023-04-09T19:19:08.603Z,100921.00
2023-04-09T19:21:37.000Z,100932.69
2023-04-09T19:24:06.213Z,100930.97
2023-04-09T19:26:34.549Z,100929.50
2023-04-09T19:29:03.771Z,100935.91
2023-04-09T19:31:34.629Z,100929.91
2023-04-09T19:34:02.909Z,100944.56
2023-04-09T19:36:33.981Z,100933.97
2023-04-09T19:39:02.101Z,100937.97
2023-04-09T19:41:30.902Z,100938.19
2023-04-09T19:44:01.242Z,100926.94
2023-04-09T19:46:30.109Z,100935.06
2023-04-09T19:48:58.776Z,100938.13
2023-04-09T19:51:27.489Z,100927.72
2023-04-09T19:53:57.606Z,100935.13
2023-04-09T19:56:26.114Z,100935.50
2023-04-09T19:58:54.776Z,100935.78
2023-04-09T20:01:23.354Z,100938.88
2023-04-09T20:03:51.581Z,100935.56
2023-04-09T20:06:19.857Z,100936.69
2023-04-09T20:08:49.446Z,100929.94
2023-04-09T20:11:20.465Z,100936.47
2023-04-09T20:13:48.983Z,100935.03
2023-04-09T20:16:17.275Z,100946.06
2023-04-09T20:18:45.485Z,100942.91
2023-04-09T20:21:14.637Z,100943.16
2023-04-09T20:23:45.195Z,100946.25
2023-04-09T20:26:13.674Z,100938.66
2023-04-09T20:28:44.104Z,100939.63
2023-04-09T20:31:12.293Z,100939.03
2023-04-09T20:33:40.481Z,100944.69
2023-04-09T20:36:16.746Z,100938.19
2023-04-09T20:38:45.121Z,100939.19
2023-04-09T20:41:13.461Z,100948.47
2023-04-09T20:43:43.125Z,100937.44
2023-04-09T20:46:12.034Z,100942.28
2023-04-09T20:48:41.072Z,100942.91
2023-04-09T20:51:13.022Z,100943.25
2023-04-09T20:53:41.203Z,100933.03
2023-04-09T20:56:09.500Z,100939.91
2023-04-09T20:58:38.963Z,100943.09
2023-04-09T21:01:10.532Z,100942.53
2023-04-09T21:03:40.098Z,100945.72
2023-04-09T21:06:11.781Z,100944.59
2023-04-09T21:08:42.866Z,100950.63
2023-04-09T21:11:11.235Z,100936.34
2023-04-09T21:13:53.202Z,100934.41
2023-04-09T21:16:26.083Z,100937.81
2023-04-09T21:18:54.673Z,100932.66
2023-04-09T21:21:23.406Z,100933.53
2023-04-09T21:23:51.596Z,100933.78
2023-04-09T21:26:19.698Z,100933.06
2023-04-09T21:28:50.526Z,100942.16
2023-04-09T21:31:19.355Z,100935.41
2023-04-09T21:33:48.930Z,100935.41
2023-04-09T21:36:17.204Z,100941.81
2023-04-09T21:38:45.699Z,100933.97
2023-04-09T21:41:14.177Z,100931.53
2023-04-09T21:43:42.485Z,100927.38
2023-04-09T21:46:10.766Z,100933.03
2023-04-09T21:48:40.974Z,100929.72
2023-04-09T21:51:11.932Z,100935.25
2023-04-09T21:53:40.107Z,100931.13
2023-04-09T21:56:08.914Z,100939.59
2023-04-09T21:58:37.474Z,100941.72
2023-04-09T22:01:13.058Z,100947.38
2023-04-09T22:03:44.238Z,100945.91
2023-04-09T22:06:13.772Z,100943.59
2023-04-09T22:08:53.133Z,100942.94
2023-04-09T22:11:26.114Z,100948.59
2023-04-09T22:13:54.468Z,100943.47
2023-04-09T22:16:22.657Z,100947.38
2023-04-09T22:18:51.475Z,100949.38
2023-04-09T22:21:21.615Z,100946.19
2023-04-09T22:23:49.941Z,100948.13
2023-04-09T22:26:18.145Z,100949.38
2023-04-09T22:28:46.598Z,100943.25
2023-04-09T22:31:14.779Z,100953.44
2023-04-09T22:33:42.929Z,100949.28
2023-04-09T22:36:11.081Z,100951.25
2023-04-09T22:38:40.674Z,100951.63
2023-04-09T22:41:08.775Z,100948.19
2023-04-09T22:43:37.191Z,100955.56
2023-04-09T22:46:06.079Z,100946.09
2023-04-09T22:48:40.800Z,100943.53
2023-04-09T22:51:15.371Z,100945.63
2023-04-09T22:53:46.011Z,100949.44
2023-04-09T22:56:14.852Z,100952.38
2023-04-09T22:58:43.021Z,100947.22
2023-04-09T23:01:11.252Z,100955.56
2023-04-09T23:03:39.431Z,100954.09
2023-04-09T23:06:08.160Z,100950.53
2023-04-09T23:08:37.808Z,100944.53
2023-04-09T23:11:08.731Z,100951.13
2023-04-09T23:13:36.841Z,100947.72
2023-04-09T23:16:06.312Z,100943.75
2023-04-09T23:18:35.795Z,100942.78
2023-04-09T23:21:06.061Z,100944.75
2023-04-09T23:23:34.364Z,100941.31
2023-04-09T23:26:02.525Z,100942.41
2023-04-09T23:28:32.184Z,100943.50
2023-04-09T23:31:00.537Z,100946.44
2023-04-09T23:33:28.716Z,100934.91
2023-04-09T23:35:57.165Z,100936.22
2023-04-09T23:38:25.522Z,100935.38
2023-04-09T23:40:53.651Z,100932.19
2023-04-09T23:43:21.772Z,100938.44
2023-04-09T23:45:51.326Z,100934.16
2023-04-09T23:48:19.462Z,100928.97
2023-04-09T23:50:47.810Z,100942.72
2023-04-09T23:53:16.157Z,100938.31
2023-04-09T23:55:45.354Z,100942.09
2023-04-09T23:58:13.917Z,100943.19
